Time;durP1;ratioP1;P1;durP2;ratioP2;P2;SDS_P1;SDS_P2;PMS_P1;PMS_P2;Temp;Humidity;BMP_temperature;BMP_pressure;BME280_temperature;BME280_humidity;BME280_pressure;Samples;Min_cycle;Max_cycle;Signal;HPM_P1;HPM_P2
2021/09/15 00:00:45;;;;;;;34.83;23.35;;;17.50;95.30;;;;;;5055769;28;20488;-78
2021/09/15 00:03:13;;;;;;;28.25;22.85;;;17.50;95.90;;;;;;5071837;28;20040;-76
2021/09/15 00:05:40;;;;;;;30.13;23.60;;;17.50;95.90;;;;;;5055180;28;20124;-77
2021/09/15 00:08:07;;;;;;;28.70;22.08;;;17.60;95.80;;;;;;5055343;28;20045;-77
2021/09/15 00:10:34;;;;;;;31.90;25.08;;;17.60;95.90;;;;;;5071523;28;20056;-77
2021/09/15 00:13:01;;;;;;;32.17;26.60;;;17.60;95.90;;;;;;5048937;28;20434;-76
2021/09/15 00:15:28;;;;;;;30.92;24.45;;;17.50;94.70;;;;;;5064534;28;20163;-78
2021/09/15 00:17:55;;;;;;;30.77;24.10;;;17.50;95.50;;;;;;5048144;28;20586;-76
2021/09/15 00:20:22;;;;;;;33.85;25.23;;;17.50;95.20;;;;;;5045602;28;20221;-77
2021/09/15 00:22:49;;;;;;;33.15;24.00;;;17.40;95.10;;;;;;5058307;28;20084;-77
2021/09/15 00:25:16;;;;;;;29.70;23.55;;;17.40;95.50;;;;;;5060537;28;20052;-77
2021/09/15 00:27:43;;;;;;;29.77;22.45;;;17.40;95.00;;;;;;5071282;28;20049;-77
2021/09/15 00:30:11;;;;;;;30.20;22.75;;;17.40;95.20;;;;;;5069588;28;20501;-78
2021/09/15 00:32:38;;;;;;;30.95;24.38;;;17.40;95.50;;;;;;5063619;28;20051;-77
2021/09/15 00:35:07;;;;;;;36.38;23.25;;;17.40;95.10;;;;;;5053241;28;20128;-77
2021/09/15 00:37:34;;;;;;;27.60;20.95;;;17.30;95.10;;;;;;5038580;28;20139;-77
2021/09/15 00:40:01;;;;;;;27.80;20.77;;;17.30;95.50;;;;;;5053239;28;20048;-77
2021/09/15 00:42:30;;;;;;;;;;;17.30;95.40;;;;;;5056191;28;20097;-77
2021/09/15 00:44:57;;;;;;;25.27;18.58;;;17.30;95.80;;;;;;5079845;28;20356;-77
2021/09/15 00:47:24;;;;;;;24.65;20.10;;;17.30;95.60;;;;;;5036912;28;20048;-77
2021/09/15 00:49:51;;;;;;;22.50;19.75;;;17.30;95.80;;;;;;5033273;28;20045;-77
2021/09/15 00:52:19;;;;;;;26.73;19.50;;;17.30;95.70;;;;;;5076465;28;20051;-77
2021/09/15 00:54:46;;;;;;;22.27;18.08;;;17.40;95.90;;;;;;5069858;28;20123;-77
2021/09/15 00:57:13;;;;;;;25.92;19.55;;;17.40;95.80;;;;;;5053944;28;20172;-77
2021/09/15 00:59:43;;;;;;;23.70;18.98;;;17.40;95.80;;;;;;5061168;28;20054;-77
2021/09/15 01:02:10;;;;;;;22.05;18.92;;;17.40;95.70;;;;;;5078910;28;20559;-80
2021/09/15 01:04:37;;;;;;;21.98;17.38;;;17.40;95.70;;;;;;5037449;28;20051;-77
2021/09/15 01:07:04;;;;;;;27.38;19.80;;;17.40;95.60;;;;;;5070220;28;20084;-77
2021/09/15 01:09:31;;;;;;;29.17;19.63;;;17.40;95.70;;;;;;5078254;28;20123;-77
2021/09/15 01:11:59;;;;;;;23.45;18.15;;;17.40;95.50;;;;;;5054138;28;20040;-77
2021/09/15 01:14:26;;;;;;;22.20;18.02;;;17.40;95.70;;;;;;5058779;28;20045;-77
2021/09/15 01:16:55;;;;;;;24.73;19.50;;;17.40;95.60;;;;;;5042636;28;20072;-77
2021/09/15 01:19:23;;;;;;;21.45;18.70;;;17.40;95.70;;;;;;5068840;28;20179;-77
2021/09/15 01:21:50;;;;;;;22.67;17.95;;;17.40;95.40;;;;;;5069839;28;20044;-77
2021/09/15 01:24:19;;;;;;;21.20;17.00;;;17.40;95.70;;;;;;5068550;28;20071;-77
2021/09/15 01:26:46;;;;;;;24.50;17.60;;;17.40;95.60;;;;;;5073913;28;20121;-77
2021/09/15 01:29:17;;;;;;;23.83;18.35;;;17.40;95.60;;;;;;5073526;28;20097;-77
2021/09/15 01:31:58;;;;;;;21.45;16.55;;;17.40;95.60;;;;;;5039769;28;20141;-77
2021/09/15 01:34:26;;;;;;;18.58;15.95;;;17.40;95.70;;;;;;5056504;28;20044;-77
2021/09/15 01:36:53;;;;;;;18.88;15.52;;;17.40;95.60;;;;;;5055914;28;20070;-77
2021/09/15 01:39:20;;;;;;;20.17;16.58;;;17.40;95.40;;;;;;5073569;28;20412;-77
2021/09/15 01:41:47;;;;;;;21.05;15.35;;;17.40;95.40;;;;;;5072845;28;20070;-79
2021/09/15 01:44:14;;;;;;;20.02;15.40;;;17.30;95.30;;;;;;5074007;28;20469;-77
2021/09/15 01:46:41;;;;;;;24.15;16.23;;;17.30;95.20;;;;;;5067985;28;20083;-77
2021/09/15 01:49:08;;;;;;;18.98;14.77;;;17.20;95.20;;;;;;5068193;28;20044;-78
2021/09/15 01:51:39;;;;;;;21.23;16.00;;;17.20;95.40;;;;;;5087173;28;20123;-77
2021/09/15 01:54:06;;;;;;;17.92;15.48;;;17.20;95.30;;;;;;5065308;28;20435;-77
2021/09/15 01:56:33;;;;;;;18.27;15.93;;;17.20;95.50;;;;;;5064226;28;20132;-77
2021/09/15 02:10:07;;;;;;;18.30;15.93;;;17.20;95.80;;;;;;5082184;28;20035;-77
2021/09/15 02:12:34;;;;;;;22.55;15.27;;;17.20;95.70;;;;;;5045907;28;20408;-77
2021/09/15 02:15:05;;;;;;;20.20;15.18;;;17.30;95.70;;;;;;5067058;28;20045;-77
2021/09/15 02:17:32;;;;;;;19.45;15.10;;;17.30;95.10;;;;;;5055478;28;20504;-77
2021/09/15 02:19:59;;;;;;;20.77;14.10;;;17.20;95.10;;;;;;5076565;28;20056;-79
2021/09/15 02:22:25;;;;;;;18.85;14.10;;;17.30;95.30;;;;;;5065975;28;20510;-77
2021/09/15 02:24:52;;;;;;;18.60;13.98;;;17.20;95.20;;;;;;5079051;28;20040;-77
2021/09/15 02:27:19;;;;;;;21.75;15.90;;;17.20;95.20;;;;;;5080127;28;20143;-77
2021/09/15 02:29:46;;;;;;;18.13;13.65;;;17.20;95.00;;;;;;5047522;28;20507;-77
2021/09/15 02:32:14;;;;;;;17.05;13.65;;;17.20;94.70;;;;;;5046054;28;20063;-79
2021/09/15 02:34:41;;;;;;;19.80;14.27;;;17.20;95.10;;;;;;5065860;28;20064;-77
2021/09/15 02:37:08;;;;;;;17.88;13.30;;;17.10;95.00;;;;;;5074333;28;20411;-77
2021/09/15 02:39:35;;;;;;;16.88;12.75;;;17.10;95.00;;;;;;5056410;28;20518;-77
2021/09/15 02:42:03;;;;;;;16.92;12.75;;;17.10;94.90;;;;;;5069511;28;20045;-77
2021/09/15 02:44:30;;;;;;;16.13;12.93;;;17.00;94.50;;;;;;5072143;28;20135;-76
2021/09/15 02:46:57;;;;;;;16.60;13.30;;;17.00;94.60;;;;;;5072224;28;20041;-77
2021/09/15 02:49:31;;;;;;;18.38;13.73;;;17.00;95.10;;;;;;5069364;28;20414;-77
2021/09/15 02:51:58;;;;;;;17.40;13.90;;;17.00;95.30;;;;;;5060855;28;20492;-80
2021/09/15 02:54:25;;;;;;;17.90;14.30;;;17.00;95.10;;;;;;5085412;28;20140;-77
2021/09/15 02:56:52;;;;;;;15.65;13.63;;;17.00;95.10;;;;;;5088137;28;20430;-77
2021/09/15 02:59:21;;;;;;;14.90;12.90;;;16.90;94.30;;;;;;5058506;28;20059;-78
2021/09/15 03:01:48;;;;;;;13.93;12.07;;;17.00;95.00;;;;;;5090105;28;20127;-78
2021/09/15 03:04:16;;;;;;;14.55;12.02;;;17.00;95.10;;;;;;5073139;28;20150;-77
2021/09/15 03:06:43;;;;;;;14.38;12.27;;;17.00;95.40;;;;;;5068965;28;20041;-77
2021/09/15 03:09:10;;;;;;;14.43;12.55;;;17.00;94.90;;;;;;5068820;28;20052;-77
2021/09/15 03:11:36;;;;;;;15.52;11.32;;;17.00;94.80;;;;;;5076019;28;20044;-77
2021/09/15 03:14:03;;;;;;;14.02;12.45;;;17.00;94.60;;;;;;5060913;28;20040;-77
2021/09/15 03:16:31;;;;;;;13.70;11.20;;;17.00;95.20;;;;;;5074313;28;20074;-77
2021/09/15 03:18:58;;;;;;;14.52;10.57;;;17.00;94.60;;;;;;5072549;28;20052;-82
2021/09/15 03:21:25;;;;;;;15.10;10.68;;;16.90;94.00;;;;;;5062200;28;20194;-77
2021/09/15 03:23:52;;;;;;;12.60;10.18;;;16.90;94.10;;;;;;5065187;28;20491;-77
2021/09/15 03:26:19;;;;;;;13.60;10.48;;;16.90;94.40;;;;;;5059716;28;20068;-77
2021/09/15 03:36:31;;;;;;;9.25;6.88;;;16.70;94.00;;;;;;5075179;28;20162;-77
2021/09/15 03:38:58;;;;;;;8.27;7.00;;;16.70;93.90;;;;;;5066624;28;20179;-79
2021/09/15 03:41:26;;;;;;;8.45;6.93;;;16.60;94.00;;;;;;5085645;28;20037;-77
2021/09/15 03:43:53;;;;;;;7.55;6.00;;;16.60;94.00;;;;;;5074747;28;20052;-77
2021/09/15 03:46:20;;;;;;;9.63;6.20;;;16.60;93.30;;;;;;5059364;28;20123;-77
2021/09/15 03:48:50;;;;;;;7.53;6.55;;;16.50;93.70;;;;;;5075967;28;20142;-77
2021/09/15 03:51:19;;;;;;;11.57;6.45;;;16.50;94.10;;;;;;5055858;28;20051;-77
2021/09/15 03:53:46;;;;;;;9.18;5.75;;;16.50;94.10;;;;;;5056162;28;20051;-77
2021/09/15 03:56:13;;;;;;;11.02;5.82;;;16.50;94.50;;;;;;5053205;28;20052;-77
2021/09/15 03:58:40;;;;;;;6.78;5.35;;;16.50;93.70;;;;;;5081380;28;20227;-77
2021/09/15 04:01:10;;;;;;;6.72;5.72;;;16.50;94.50;;;;;;5065708;28;20048;-77
2021/09/15 04:03:37;;;;;;;10.90;5.55;;;16.60;93.80;;;;;;5067404;28;20157;-76
2021/09/15 04:06:04;;;;;;;10.75;5.32;;;16.60;94.30;;;;;;5072190;28;20059;-77
2021/09/15 04:08:31;;;;;;;9.32;5.75;;;16.60;94.10;;;;;;5065797;28;20051;-77
2021/09/15 04:18:20;;;;;;;6.50;4.90;;;16.50;95.10;;;;;;5074720;28;20057;-77
2021/09/15 04:20:47;;;;;;;7.50;5.65;;;16.60;94.20;;;;;;5042869;28;20065;-77
2021/09/15 04:23:28;;;;;;;5.82;5.07;;;16.50;94.20;;;;;;5030008;28;20374;-77
2021/09/15 04:31:27;;;;;;;9.20;5.32;;;16.50;94.00;;;;;;5025450;28;20041;-77
2021/09/15 04:33:54;;;;;;;7.38;5.20;;;16.60;94.10;;;;;;4996619;28;20132;-77
2021/09/15 04:36:21;;;;;;;8.43;5.35;;;16.60;94.50;;;;;;5029498;28;20059;-77
2021/09/15 04:38:48;;;;;;;6.03;5.00;;;16.60;93.80;;;;;;5033617;28;20045;-77
2021/09/15 04:41:15;;;;;;;7.38;4.95;;;16.60;94.50;;;;;;5033247;28;20045;-77
2021/09/15 04:43:42;;;;;;;5.60;4.85;;;16.60;94.50;;;;;;5028794;28;20045;-77
2021/09/15 04:46:09;;;;;;;6.88;5.22;;;16.60;94.40;;;;;;5029884;28;20362;-77
2021/09/15 04:49:13;;;;;;;6.82;5.45;;;16.60;94.40;;;;;;5029814;28;20080;-77
2021/09/15 04:51:40;;;;;;;6.97;4.50;;;16.60;94.90;;;;;;5038031;28;20396;-77
2021/09/15 04:54:07;;;;;;;5.28;4.75;;;16.70;94.50;;;;;;5041568;28;20097;-78
2021/09/15 04:56:34;;;;;;;5.68;4.70;;;16.70;94.40;;;;;;5033116;28;20045;-77
2021/09/15 04:59:01;;;;;;;6.55;5.90;;;16.70;94.20;;;;;;5032122;28;20124;-77
2021/09/15 05:01:28;;;;;;;6.25;4.65;;;16.70;94.60;;;;;;5033161;28;20129;-78
2021/09/15 05:03:55;;;;;;;6.05;5.05;;;16.70;94.60;;;;;;5032279;28;20045;-77
2021/09/15 05:06:22;;;;;;;8.40;5.65;;;16.70;94.70;;;;;;5015969;28;20102;-77
2021/09/15 05:08:49;;;;;;;8.23;5.93;;;16.70;94.60;;;;;;5016065;28;20053;-77
2021/09/15 05:11:16;;;;;;;7.03;6.25;;;16.70;94.10;;;;;;5032628;28;20067;-77
2021/09/15 05:13:44;;;;;;;7.22;5.72;;;16.70;94.40;;;;;;5033130;28;20037;-77
2021/09/15 05:16:11;;;;;;;10.23;7.13;;;16.70;94.60;;;;;;5032225;28;20072;-77
2021/09/15 05:18:38;;;;;;;10.27;6.40;;;16.70;94.20;;;;;;5031380;28;20046;-77
2021/09/15 05:21:06;;;;;;;8.93;7.10;;;16.60;94.30;;;;;;5061044;28;20056;-77
2021/09/15 05:23:34;;;;;;;7.93;6.55;;;16.60;94.50;;;;;;5080370;28;20056;-77
2021/09/15 05:26:01;;;;;;;7.93;6.95;;;16.60;94.50;;;;;;5072191;28;20051;-78
2021/09/15 05:28:28;;;;;;;9.02;7.32;;;16.60;94.70;;;;;;5054951;28;20203;-78
2021/09/15 05:30:55;;;;;;;12.75;8.40;;;16.60;94.30;;;;;;5073568;28;20059;-77
2021/09/15 05:33:22;;;;;;;10.00;7.47;;;16.50;94.40;;;;;;5075232;28;20051;-77
2021/09/15 05:35:48;;;;;;;11.80;8.23;;;16.50;93.50;;;;;;5035354;28;20136;-77
2021/09/15 05:38:18;;;;;;;10.48;7.85;;;16.50;94.50;;;;;;5073315;28;20089;-77
2021/09/15 05:40:45;;;;;;;13.55;9.57;;;16.40;94.40;;;;;;5072674;28;20488;-77
2021/09/15 05:43:12;;;;;;;12.70;8.75;;;16.40;94.70;;;;;;5073822;28;20076;-77
2021/09/15 05:45:39;;;;;;;10.68;8.82;;;16.40;94.00;;;;;;5076051;28;20079;-78
2021/09/15 05:48:06;;;;;;;15.25;9.70;;;16.40;94.10;;;;;;5088745;28;20557;-77
2021/09/15 05:50:33;;;;;;;11.10;9.82;;;16.40;94.20;;;;;;5058478;28;20044;-77
2021/09/15 05:53:00;;;;;;;11.05;9.32;;;16.40;94.50;;;;;;5078696;28;20414;-77
2021/09/15 05:55:27;;;;;;;12.60;9.65;;;16.40;93.60;;;;;;5079102;28;20040;-78
2021/09/15 05:57:54;;;;;;;11.57;9.43;;;16.30;93.90;;;;;;5073677;28;20063;-78
2021/09/15 06:00:21;;;;;;;10.02;8.23;;;16.30;94.10;;;;;;5076225;28;20446;-77
2021/09/15 06:02:55;;;;;;;10.00;8.13;;;16.20;94.00;;;;;;5086746;28;20048;-77
2021/09/15 06:05:22;;;;;;;10.15;7.57;;;16.20;93.90;;;;;;5073574;28;20427;-77
2021/09/15 06:07:49;;;;;;;10.00;6.88;;;16.20;93.40;;;;;;5077244;28;20052;-77
2021/09/15 06:10:17;;;;;;;7.55;6.00;;;16.20;93.40;;;;;;5058981;28;20562;-78
2021/09/15 06:12:44;;;;;;;10.63;6.43;;;16.10;93.70;;;;;;5039723;28;20072;-77
2021/09/15 06:15:11;;;;;;;9.25;6.30;;;16.10;93.10;;;;;;5056441;28;20041;-77
2021/09/15 06:17:38;;;;;;;9.02;7.18;;;16.10;93.70;;;;;;5061804;28;20048;-78
2021/09/15 06:20:05;;;;;;;7.53;6.82;;;16.10;93.60;;;;;;5080171;28;20044;-80
2021/09/15 06:22:32;;;;;;;7.30;5.80;;;16.10;93.70;;;;;;5058241;28;20859;-77
2021/09/15 06:25:00;;;;;;;17.05;14.93;;;16.10;93.80;;;;;;5083693;28;20049;-75
2021/09/15 06:27:27;;;;;;;14.77;11.68;;;16.10;93.80;;;;;;5072421;28;20400;-77
2021/09/15 06:29:54;;;;;;;7.88;5.20;;;16.00;92.90;;;;;;5078838;28;20047;-77
2021/09/15 06:32:21;;;;;;;7.85;4.55;;;16.00;92.80;;;;;;5082936;28;20120;-81
2021/09/15 06:34:48;;;;;;;4.88;4.20;;;16.00;92.80;;;;;;5066544;28;20064;-78
2021/09/15 06:37:18;;;;;;;5.07;4.35;;;16.00;93.10;;;;;;5055893;28;20048;-77
2021/09/15 06:39:45;;;;;;;6.75;4.25;;;16.00;92.10;;;;;;5063214;28;20139;-80
2021/09/15 06:42:15;;;;;;;5.72;4.00;;;15.90;92.50;;;;;;5063247;28;20059;-80
2021/09/15 06:44:42;;;;;;;7.70;5.38;;;15.90;92.70;;;;;;5054778;28;20048;-79
2021/09/15 06:47:09;;;;;;;6.82;5.00;;;15.90;93.30;;;;;;5071871;28;20047;-79
2021/09/15 06:49:36;;;;;;;6.32;5.72;;;16.00;92.90;;;;;;5070817;28;20927;-75
2021/09/15 06:52:03;;;;;;;14.90;6.78;;;16.00;91.40;;;;;;5054104;28;20527;-70
2021/09/15 06:54:33;;;;;;;7.93;6.18;;;16.10;92.80;;;;;;5055690;28;20064;-70
2021/09/15 06:57:00;;;;;;;5.15;4.57;;;16.10;92.80;;;;;;5053198;28;20063;-70
2021/09/15 06:59:27;;;;;;;5.15;4.60;;;16.20;92.80;;;;;;5071565;28;20135;-69
2021/09/15 07:01:54;;;;;;;4.47;4.07;;;16.20;92.80;;;;;;5065941;28;20047;-70
2021/09/15 07:04:21;;;;;;;30.02;9.38;;;16.20;92.20;;;;;;5073607;28;20522;-71
2021/09/15 07:06:48;;;;;;;7.45;6.43;;;16.20;92.80;;;;;;5061860;28;20123;-71
2021/09/15 07:09:15;;;;;;;9.10;7.70;;;16.20;94.50;;;;;;5075106;28;20139;-72
2021/09/15 07:11:42;;;;;;;6.25;5.65;;;16.20;92.50;;;;;;5063472;28;20056;-71
2021/09/15 07:14:09;;;;;;;6.00;5.40;;;16.20;94.50;;;;;;5082973;28;20526;-72
2021/09/15 07:16:36;;;;;;;5.88;5.22;;;16.20;94.50;;;;;;5071561;28;20048;-75
2021/09/15 07:19:03;;;;;;;5.30;4.80;;;16.20;94.90;;;;;;5052586;28;20056;-73
2021/09/15 07:21:30;;;;;;;5.63;5.13;;;16.20;95.30;;;;;;5065667;28;20088;-71
2021/09/15 07:23:57;;;;;;;5.22;4.72;;;16.30;95.60;;;;;;5081980;28;20143;-73
2021/09/15 07:26:24;;;;;;;5.65;5.07;;;16.40;95.40;;;;;;5061471;28;20084;-72
2021/09/15 07:28:51;;;;;;;6.65;5.50;;;16.40;95.80;;;;;;5056236;28;20119;-74
2021/09/15 07:31:18;;;;;;;5.88;5.30;;;16.50;95.20;;;;;;5060433;28;20130;-71
2021/09/15 07:33:45;;;;;;;8.18;7.30;;;16.60;95.70;;;;;;5057789;28;20579;-72
2021/09/15 07:36:12;;;;;;;6.55;5.95;;;16.60;91.70;;;;;;5070166;28;20083;-74
2021/09/15 07:38:39;;;;;;;8.68;7.65;;;16.60;94.60;;;;;;5075029;28;20048;-71
2021/09/15 07:41:06;;;;;;;7.80;7.10;;;16.70;95.30;;;;;;5071526;28;20460;-75
2021/09/15 07:43:33;;;;;;;7.60;6.55;;;16.70;95.40;;;;;;5070116;28;20059;-74
2021/09/15 07:46:00;;;;;;;11.20;10.00;;;16.70;93.80;;;;;;5070229;28;20045;-75
2021/09/15 07:48:27;;;;;;;7.57;6.78;;;16.80;94.50;;;;;;5052087;28;20480;-74
2021/09/15 07:50:55;;;;;;;9.57;7.60;;;16.70;94.40;;;;;;5051966;28;20049;-76
2021/09/15 07:53:22;;;;;;;7.95;6.72;;;16.80;94.80;;;;;;5051395;28;20148;-76
2021/09/15 07:55:49;;;;;;;8.77;7.40;;;16.70;94.80;;;;;;5052039;28;20132;-75
2021/09/15 07:58:16;;;;;;;9.30;6.55;;;16.70;94.50;;;;;;5070819;28;20100;-78
2021/09/15 08:00:43;;;;;;;7.55;5.93;;;16.60;93.40;;;;;;5054594;28;20153;-75
2021/09/15 08:03:10;;;;;;;6.57;5.97;;;16.60;94.80;;;;;;5052682;28;20055;-73
2021/09/15 08:05:37;;;;;;;6.35;5.75;;;16.70;94.70;;;;;;5070186;28;20381;-74
2021/09/15 08:08:04;;;;;;;6.43;5.57;;;16.80;95.00;;;;;;5086128;28;20408;-76
2021/09/15 08:10:31;;;;;;;5.82;5.32;;;16.90;95.20;;;;;;5057234;28;20451;-74
2021/09/15 08:13:01;;;;;;;7.15;5.22;;;17.10;95.30;;;;;;5032669;28;20067;-76
2021/09/15 08:15:28;;;;;;;6.97;5.53;;;17.20;95.60;;;;;;5071273;28;20040;-77
2021/09/15 08:17:55;;;;;;;6.57;5.85;;;17.30;93.00;;;;;;5052576;28;20444;-73
2021/09/15 08:20:22;;;;;;;6.15;5.00;;;17.50;93.00;;;;;;5069811;28;20469;-74
2021/09/15 08:22:49;;;;;;;30.42;25.98;;;17.60;91.40;;;;;;5081348;28;20046;-74
2021/09/15 08:25:16;;;;;;;10.98;9.80;;;17.60;93.60;;;;;;5066866;28;20079;-77
2021/09/15 08:27:44;;;;;;;7.50;6.70;;;17.60;92.50;;;;;;5074997;28;20079;-75
2021/09/15 08:30:11;;;;;;;6.15;5.25;;;17.70;92.10;;;;;;5064296;28;20048;-76
2021/09/15 08:32:38;;;;;;;6.38;5.72;;;17.60;91.50;;;;;;5035662;28;20130;-74
2021/09/15 08:35:06;;;;;;;5.82;4.65;;;17.70;93.70;;;;;;5076062;28;20143;-76
2021/09/15 08:37:37;;;;;;;5.20;4.45;;;17.70;92.70;;;;;;5088953;28;20067;-75
2021/09/15 08:40:05;;;;;;;6.05;5.10;;;17.70;93.60;;;;;;5062115;28;20128;-78
2021/09/15 08:42:32;;;;;;;5.15;4.35;;;17.80;94.00;;;;;;5070347;28;20087;-78
2021/09/15 08:45:01;;;;;;;4.30;3.30;;;17.80;94.00;;;;;;5051822;28;20048;-78
2021/09/15 08:47:28;;;;;;;5.05;3.80;;;17.90;94.00;;;;;;5052149;28;20044;-78
2021/09/15 08:49:56;;;;;;;4.00;3.60;;;17.90;93.40;;;;;;5051876;28;20060;-78
2021/09/15 08:52:23;;;;;;;4.20;3.80;;;17.90;92.20;;;;;;5069964;28;20048;-78
2021/09/15 08:54:49;;;;;;;5.45;4.32;;;17.80;87.50;;;;;;5069719;28;20461;-78
2021/09/15 08:57:16;;;;;;;5.05;4.30;;;17.90;93.40;;;;;;5035865;28;20040;-79
2021/09/15 08:59:43;;;;;;;4.30;3.90;;;17.90;92.10;;;;;;5069799;28;20044;-79
2021/09/15 09:02:13;;;;;;;6.15;4.38;;;18.00;93.90;;;;;;5070469;28;20052;-80
2021/09/15 09:04:58;;;;;;;5.25;4.28;;;18.10;93.90;;;;;;5069040;28;20056;-79
2021/09/15 09:07:25;;;;;;;4.45;4.05;;;18.10;88.70;;;;;;5070256;28;20056;-78
2021/09/15 09:09:53;;;;;;;5.03;4.30;;;18.10;92.70;;;;;;5051386;28;20072;-79
2021/09/15 09:12:23;;;;;;;5.00;4.32;;;18.10;91.20;;;;;;5069999;28;20446;-78
2021/09/15 09:14:50;;;;;;;5.07;4.05;;;18.20;93.60;;;;;;5052106;28;20048;-78
2021/09/15 09:17:29;;;;;;;5.30;4.72;;;18.30;93.70;;;;;;5052346;28;20044;-78
2021/09/15 09:20:23;;;;;;;6.07;5.57;;;18.30;93.40;;;;;;5051198;28;20057;-78
2021/09/15 09:23:10;;;;;;;7.43;5.57;;;18.40;92.00;;;;;;5051436;28;20048;-78
2021/09/15 09:25:42;;;;;;;6.15;5.22;;;18.40;91.40;;;;;;5069862;28;20044;-78
2021/09/15 09:28:18;;;;;;;5.30;4.82;;;18.40;93.40;;;;;;5069475;28;20045;-79
2021/09/15 09:30:46;;;;;;;5.07;4.57;;;18.40;92.70;;;;;;5051720;28;20139;-78
2021/09/15 09:33:13;;;;;;;5.93;4.25;;;18.50;93.60;;;;;;5051821;28;20070;-79
2021/09/15 09:35:51;;;;;;;4.60;3.97;;;18.50;93.50;;;;;;5069516;28;20074;-79
2021/09/15 09:38:23;;;;;;;5.40;4.50;;;18.60;92.10;;;;;;5062358;28;20048;-79
2021/09/15 09:40:57;;;;;;;4.93;4.00;;;18.60;92.20;;;;;;5054488;28;20385;-78
2021/09/15 09:43:25;;;;;;;4.75;4.35;;;18.60;92.20;;;;;;5075486;28;20044;-78
2021/09/15 09:45:52;;;;;;;4.03;3.63;;;18.50;92.50;;;;;;5092218;28;20139;-77
2021/09/15 09:48:34;;;;;;;4.85;4.00;;;18.60;92.10;;;;;;5077177;28;20049;-78
2021/09/15 09:51:04;;;;;;;4.50;3.88;;;18.70;93.50;;;;;;5072798;28;20089;-78
2021/09/15 09:53:31;;;;;;;4.40;3.55;;;18.80;93.60;;;;;;5037670;28;20056;-79
2021/09/15 09:55:58;;;;;;;3.95;3.40;;;18.90;93.50;;;;;;5054857;28;20067;-78
2021/09/15 09:58:26;;;;;;;3.83;3.05;;;19.00;93.10;;;;;;5073056;28;20480;-78
2021/09/15 10:00:55;;;;;;;3.30;2.88;;;19.00;92.40;;;;;;5084160;28;20472;-79
2021/09/15 10:03:23;;;;;;;4.60;3.10;;;19.10;92.10;;;;;;5054944;28;20052;-79
2021/09/15 10:05:50;;;;;;;4.97;3.60;;;19.20;91.70;;;;;;5084658;28;20044;-78
2021/09/15 10:08:19;;;;;;;4.32;3.80;;;19.20;91.40;;;;;;5092395;28;20105;-77
2021/09/15 10:10:49;;;;;;;3.67;3.05;;;19.20;92.20;;;;;;5073275;28;20049;-78
2021/09/15 10:13:17;;;;;;;4.25;3.58;;;19.30;90.60;;;;;;5054075;28;20044;-77
2021/09/15 10:15:53;;;;;;;4.13;3.63;;;19.40;90.40;;;;;;5054710;28;20087;-79
2021/09/15 10:18:19;;;;;;;4.47;3.80;;;19.40;91.40;;;;;;5054617;28;20516;-78
2021/09/15 10:20:49;;;;;;;4.15;3.67;;;19.30;85.30;;;;;;5054368;28;20389;-78
2021/09/15 10:23:36;;;;;;;4.85;3.50;;;19.20;86.00;;;;;;5037673;28;20084;-78
2021/09/15 10:26:26;;;;;;;5.13;3.17;;;19.20;91.00;;;;;;5038689;28;20385;-78
2021/09/15 10:29:19;;;;;;;5.45;4.95;;;19.20;88.90;;;;;;5072076;28;20382;-78
2021/09/15 10:31:59;;;;;;;4.63;3.50;;;19.20;84.10;;;;;;5041435;28;20078;-77
2021/09/15 10:34:38;;;;;;;4.72;3.88;;;19.20;81.40;;;;;;5054133;28;20048;-78
2021/09/15 10:37:12;;;;;;;4.80;4.30;;;19.30;90.80;;;;;;5092735;28;20076;-78
2021/09/15 10:39:58;;;;;;;5.18;4.13;;;19.40;90.10;;;;;;5075434;28;20091;-78
2021/09/15 10:42:34;;;;;;;6.50;5.13;;;19.30;91.30;;;;;;5065494;28;20404;-77
2021/09/15 10:45:19;;;;;;;5.50;4.97;;;19.40;84.60;;;;;;5075167;28;20055;-76
2021/09/15 10:47:48;;;;;;;8.77;7.57;;;19.40;86.50;;;;;;5046258;28;20044;-75
2021/09/15 10:50:27;;;;;;;6.28;5.68;;;19.50;88.10;;;;;;5074915;28;20472;-76
2021/09/15 10:53:03;;;;;;;;;;;19.50;90.30;;;;;;5079300;28;20060;-74
2021/09/15 10:55:54;;;;;;;5.32;4.43;;;19.50;79.30;;;;;;5071003;28;20328;-76
2021/09/15 10:58:23;;;;;;;5.03;3.65;;;19.50;87.20;;;;;;5071978;28;20110;-73
2021/09/15 11:00:57;;;;;;;4.82;3.83;;;19.50;89.00;;;;;;5053730;28;20238;-72
2021/09/15 11:03:30;;;;;;;6.65;4.28;;;19.60;79.60;;;;;;5056556;28;20388;-73
2021/09/15 11:06:07;;;;;;;5.57;3.45;;;19.60;81.20;;;;;;5062845;28;20123;-76
2021/09/15 11:08:35;;;;;;;6.00;3.85;;;19.70;78.20;;;;;;5061747;28;20044;-70
2021/09/15 11:11:06;;;;;;;5.60;3.85;;;19.90;83.30;;;;;;5072853;28;20054;-75
2021/09/15 11:13:37;;;;;;;5.68;3.80;;;19.80;74.30;;;;;;5060702;28;20049;-76
2021/09/15 11:16:23;;;;;;;3.85;3.20;;;19.70;86.50;;;;;;5066667;28;20044;-74
2021/09/15 11:19:00;;;;;;;4.22;3.17;;;19.80;87.00;;;;;;5078678;28;20048;-71
2021/09/15 11:21:29;;;;;;;4.10;3.60;;;19.80;82.30;;;;;;5065366;28;20060;-76
2021/09/15 11:23:58;;;;;;;4.80;3.15;;;19.70;85.20;;;;;;5072194;28;20117;-71
2021/09/15 11:26:35;;;;;;;3.80;3.33;;;19.60;78.60;;;;;;5058328;28;20215;-70
2021/09/15 11:29:02;;;;;;;5.03;3.30;;;19.50;77.70;;;;;;5071610;28;20052;-71
2021/09/15 11:31:32;;;;;;;3.58;3.03;;;19.30;84.10;;;;;;5071961;28;20087;-70
2021/09/15 11:34:13;;;;;;;5.65;3.90;;;19.40;85.80;;;;;;5070246;28;20136;-70
2021/09/15 11:36:49;;;;;;;5.13;3.97;;;19.50;84.90;;;;;;5072634;28;20127;-71
2021/09/15 11:39:17;;;;;;;4.40;3.20;;;19.60;84.50;;;;;;5053465;28;20049;-71
2021/09/15 11:41:44;;;;;;;4.40;3.60;;;19.70;85.80;;;;;;5054268;28;20048;-74
2021/09/15 11:44:12;;;;;;;6.13;4.53;;;19.80;86.90;;;;;;5063004;28;20059;-73
2021/09/15 11:46:39;;;;;;;7.30;4.03;;;20.00;81.70;;;;;;5069579;28;20048;-74
2021/09/15 11:49:06;;;;;;;4.15;3.58;;;20.00;83.50;;;;;;5063958;28;20062;-73
2021/09/15 11:51:34;;;;;;;5.50;3.92;;;19.90;84.70;;;;;;5071768;28;20064;-79
2021/09/15 11:56:35;;;;;;;;;;;20.00;80.60;;;;;;5092155;28;20131;-77
2021/09/15 11:59:02;;;;;;;6.20;4.60;;;20.00;82.50;;;;;;5070374;28;19920;-73
2021/09/15 12:01:33;;;;;;;9.50;5.80;;;19.90;83.50;;;;;;5067486;28;20044;-77
2021/09/15 12:04:05;;;;;;;5.97;4.47;;;19.90;79.70;;;;;;5089138;28;20044;-76
2021/09/15 12:06:35;;;;;;;6.45;4.32;;;19.90;81.80;;;;;;5039329;28;20147;-77
2021/09/15 12:09:06;;;;;;;6.95;4.57;;;19.90;80.90;;;;;;5051387;28;20056;-76
2021/09/15 12:11:39;;;;;;;6.28;5.63;;;19.90;77.70;;;;;;5051449;28;20040;-75
2021/09/15 12:14:07;;;;;;;4.93;4.35;;;19.90;81.60;;;;;;5062023;28;20119;-74
2021/09/15 12:16:36;;;;;;;5.77;4.57;;;19.80;84.20;;;;;;5065107;28;20048;-74
2021/09/15 12:19:18;;;;;;;6.18;4.78;;;19.70;82.90;;;;;;5060073;28;20051;-78
2021/09/15 12:21:47;;;;;;;6.65;4.40;;;19.70;79.40;;;;;;5046870;28;20052;-77
2021/09/15 12:24:14;;;;;;;5.55;4.93;;;19.50;83.80;;;;;;5069303;28;20048;-77
2021/09/15 12:26:41;;;;;;;6.60;5.03;;;19.50;85.70;;;;;;5074994;28;20048;-73
2021/09/15 12:29:09;;;;;;;5.28;4.78;;;19.50;80.80;;;;;;5057299;28;20052;-71
2021/09/15 12:31:49;;;;;;;5.60;4.50;;;19.50;82.50;;;;;;5069994;28;20155;-71
2021/09/15 12:34:43;;;;;;;5.22;4.72;;;19.50;86.90;;;;;;5036410;28;20052;-71
2021/09/15 12:37:17;;;;;;;6.32;4.43;;;19.50;83.70;;;;;;5052581;28;20135;-72
2021/09/15 12:39:53;;;;;;;6.50;4.00;;;19.60;79.90;;;;;;5052541;28;20132;-71
2021/09/15 12:42:25;;;;;;;4.70;4.15;;;19.70;85.90;;;;;;5070553;28;20139;-71
2021/09/15 12:45:04;;;;;;;4.38;3.63;;;19.80;83.20;;;;;;5070478;28;20098;-72
2021/09/15 12:47:33;;;;;;;4.20;3.72;;;19.90;84.00;;;;;;5070472;28;20052;-71
2021/09/15 12:50:20;;;;;;;54.00;47.65;;;20.00;87.70;;;;;;5068820;28;20083;-70
2021/09/15 12:53:08;;;;;;;21.50;19.30;;;20.10;83.40;;;;;;5068722;28;20048;-70
2021/09/15 12:55:49;;;;;;;15.07;13.50;;;20.10;75.00;;;;;;5060107;28;20097;-71
2021/09/15 12:58:29;;;;;;;10.93;9.68;;;20.10;84.60;;;;;;5052003;28;20055;-71
2021/09/15 13:00:56;;;;;;;7.95;6.90;;;20.10;74.50;;;;;;5052061;28;20131;-71
2021/09/15 13:03:40;;;;;;;7.63;6.82;;;20.20;83.90;;;;;;5069632;28;20082;-71
2021/09/15 13:06:07;;;;;;;7.07;6.38;;;20.20;84.20;;;;;;5051582;28;20503;-70
2021/09/15 13:08:34;;;;;;;12.23;6.53;;;20.30;82.20;;;;;;5051011;28;20476;-71
2021/09/15 13:11:01;;;;;;;7.78;5.97;;;20.20;80.00;;;;;;5053872;28;20041;-71
2021/09/15 13:13:29;;;;;;;5.75;5.18;;;20.20;83.30;;;;;;5056547;28;20451;-71
2021/09/15 13:15:57;;;;;;;5.70;5.07;;;20.20;85.20;;;;;;5039483;28;20059;-71
2021/09/15 13:18:24;;;;;;;5.22;4.15;;;20.20;85.20;;;;;;5056209;28;20080;-71
2021/09/15 13:20:51;;;;;;;4.85;4.03;;;20.20;84.10;;;;;;5080321;28;20135;-74
2021/09/15 13:23:18;;;;;;;6.30;5.63;;;20.20;86.00;;;;;;5084615;28;20132;-73
2021/09/15 13:25:45;;;;;;;15.90;13.77;;;20.30;86.70;;;;;;5072926;28;20094;-73